Akebono — JG5644 — position and weather

sailwx.info

Track history (hours):
 
Tides and Currents Weather Stations Pressure Air Temp Water Temp Dewpoint Dewpoint Depression Visibility Wind Speed Wind Dir Waves Ship Positions

Akebono

Last reported at 2016-Jun-26 18:33 UTC. Time now 2016-Jun-26 19:13 UTC.
Position N 35°26' E 139°42'.

Length 33 m; draft 4.4 m.

Type: Tug. MMSI: 431000233.

Date/timePositionNaut miles runAvg speedWind from/ knotsBaromVisibWave heightAir tempDewpointWater temp
2016-Jun-26 18:33N 35°26' E 139°42'0 0.0
2016-Jun-26 17:33N 35°26' E 139°42'0 0.0
2016-Jun-26 16:33N 35°26' E 139°42'0 0.0
2016-Jun-26 15:33N 35°26' E 139°42'2 1.6
2016-Jun-26 14:33N 35°27' E 139°41'2 1.6
2016-Jun-26 13:33N 35°26' E 139°42'0 0.0
2016-Jun-26 12:33N 35°26' E 139°42'0 0.1
2016-Jun-26 11:33N 35°26' E 139°42'0 0.0
2016-Jun-26 10:33N 35°26' E 139°42'2 2.2
2016-Jun-26 09:34N 35°27' E 139°44'3 2.7
2016-Jun-26 08:34N 35°30' E 139°44'2 1.7
2016-Jun-26 07:34N 35°30' E 139°46'0 0.0
2016-Jun-26 06:34N 35°30' E 139°46'2 1.6
2016-Jun-26 05:34N 35°29' E 139°47'0 0.1
2016-Jun-26 04:33N 35°29' E 139°47'3 3.1
2016-Jun-26 03:33N 35°26' E 139°46'7 6.5
2016-Jun-26 02:33N 35°27' E 139°38'0 0.0
2016-Jun-26 01:33N 35°27' E 139°38'0 0.0
2016-Jun-26 00:33N 35°27' E 139°38'0 0.0
2016-Jun-25 23:33N 35°27' E 139°38'0 0.0
2016-Jun-25 22:33N 35°27' E 139°38'0 0.0
2016-Jun-25 21:33N 35°27' E 139°38'0 0.0
2016-Jun-25 20:33N 35°27' E 139°38'0 0.0
2016-Jun-25 07:11N 35°27' E 139°38'0 0.0
2016-Jun-25 06:34N 35°27' E 139°38'0 0.0
2016-Jun-25 05:33N 35°27' E 139°38'0 0.0
2016-Jun-25 04:33N 35°27' E 139°38'0 0.0
2016-Jun-25 03:34N 35°27' E 139°38'0 0.0
2016-Jun-25 02:34N 35°27' E 139°38'0 0.0
2016-Jun-25 01:34N 35°27' E 139°38'0 0.0
2016-Jun-25 00:34N 35°27' E 139°38'2 2.2
2016-Jun-24 23:34N 35°28' E 139°41'5 4.9
2016-Jun-24 22:34N 35°31' E 139°46'4 4.2
2016-Jun-24 21:34N 35°27' E 139°44'3 2.8
2016-Jun-24 20:34N 35°27' E 139°40'1 1.4
2016-Jun-24 19:34N 35°27' E 139°38'0 0.0
2016-Jun-24 08:33N 35°27' E 139°38'7 7.1
2016-Jun-24 07:33N 35°29' E 139°47'0 0.0
2016-Jun-24 04:33N 35°29' E 139°47'3 3.3
2016-Jun-24 03:33N 35°29' E 139°43'4 4.1
2016-Jun-24 02:33N 35°27' E 139°38'0 0.0
2016-Jun-24 01:33N 35°27' E 139°38'0 0.0
2016-Jun-24 00:33N 35°27' E 139°38'0 0.0
2016-Jun-23 23:33N 35°27' E 139°38'0 0.0
2016-Jun-23 22:33N 35°27' E 139°38'1 0.1
2016-Jun-23 05:33N 35°27' E 139°39'0 0.0
2016-Jun-23 04:34N 35°27' E 139°39'0 0.0
2016-Jun-23 03:34N 35°27' E 139°39'0 0.0
2016-Jun-23 02:33N 35°27' E 139°39'0 0.0
2016-Jun-23 01:33N 35°27' E 139°39'0 0.0
2016-Jun-23 00:33N 35°27' E 139°39'0 0.1
2016-Jun-22 23:34N 35°27' E 139°39'1 0.9
2016-Jun-22 22:33N 35°28' E 139°40'3 2.7
2016-Jun-22 21:33N 35°27' E 139°43'4 4.0
2016-Jun-22 20:34N 35°28' E 139°38'0 0.0
2016-Jun-22 10:29N 35°27' E 139°38'1 1.5
2016-Jun-22 09:34N 35°27' E 139°40'1 0.5
2016-Jun-22 08:34N 35°28' E 139°41'0 0.0
2016-Jun-22 07:34N 35°28' E 139°41'0 0.0
2016-Jun-22 06:34N 35°28' E 139°41'0 0.0
2016-Jun-22 05:34N 35°28' E 139°41'0 0.0
2016-Jun-22 04:34N 35°28' E 139°41'0 0.0
2016-Jun-22 03:33N 35°28' E 139°41'0 0.0
2016-Jun-22 02:34N 35°28' E 139°41'0 0.0
2016-Jun-22 01:34N 35°28' E 139°41'3 3.5
2016-Jun-22 00:33N 35°29' E 139°44'1 0.6
2016-Jun-21 23:34N 35°28' E 139°45'1 0.9
2016-Jun-21 22:33N 35°27' E 139°45'5 5.3
2016-Jun-21 21:33N 35°27' E 139°38'0 0.0
2016-Jun-21 07:12N 35°27' E 139°38'1 1.4
2016-Jun-21 06:33N 35°27' E 139°39'0 0.0
2016-Jun-21 04:33N 35°27' E 139°39'0 0.0
2016-Jun-21 03:33N 35°27' E 139°39'0 0.0
2016-Jun-21 02:33N 35°27' E 139°39'0 0.0
2016-Jun-21 01:33N 35°27' E 139°39'5 4.6
2016-Jun-21 00:33N 35°28' E 139°45'2 1.9
2016-Jun-20 23:33N 35°30' E 139°45'0 0.3
2016-Jun-20 22:33N 35°31' E 139°45'4 3.8
2016-Jun-20 21:33N 35°27' E 139°43'2 2.2
2016-Jun-20 20:33N 35°27' E 139°40'1 0.1
2016-Jun-20 06:34N 35°27' E 139°38'0 0.0
2016-Jun-20 05:34N 35°27' E 139°38'0 0.0
2016-Jun-20 04:34N 35°27' E 139°38'0 0.0
2016-Jun-20 03:34N 35°27' E 139°38'0 0.0
2016-Jun-20 02:34N 35°27' E 139°38'0 0.0
2016-Jun-20 01:33N 35°27' E 139°38'0 0.0
2016-Jun-20 00:34N 35°27' E 139°38'0 0.0
2016-Jun-19 23:34N 35°27' E 139°38'2 0.1
2016-Jun-18 23:33N 35°27' E 139°40'2 1.8
2016-Jun-18 22:34N 35°26' E 139°42'0 0.4
2016-Jun-18 21:33N 35°26' E 139°42'2 1.8
2016-Jun-18 20:33N 35°28' E 139°41'1 0.7
2016-Jun-18 19:33N 35°28' E 139°42'0 0.0
2016-Jun-18 18:33N 35°28' E 139°42'0 0.0
2016-Jun-18 17:34N 35°28' E 139°42'0 0.0
2016-Jun-18 16:33N 35°28' E 139°42'0 0.0
2016-Jun-18 15:33N 35°28' E 139°42'2 1.5
2016-Jun-18 14:33N 35°26' E 139°41'1 1.5
2016-Jun-18 13:33N 35°27' E 139°39'0 0.0
2016-Jun-18 12:33N 35°27' E 139°39'0 0.0
2016-Jun-18 11:33N 35°27' E 139°39'5 4.8
2016-Jun-18 10:34N 35°27' E 139°45'4 3.9
2016-Jun-18 09:33N 35°30' E 139°46'2 2.4
2016-Jun-18 08:33N 35°29' E 139°43'2 1.7
2016-Jun-18 07:33N 35°28' E 139°42'2 2.3
2016-Jun-18 06:33N 35°27' E 139°40'1 0.9
2016-Jun-18 05:33N 35°27' E 139°38'0 0.0
2016-Jun-18 04:33N 35°27' E 139°38'0 0.0
2016-Jun-18 03:33N 35°27' E 139°38'0 0.0
2016-Jun-18 02:33N 35°27' E 139°38'0 0.0
2016-Jun-18 01:33N 35°27' E 139°38'0 0.0
2016-Jun-18 00:33N 35°27' E 139°38'0 0.0
2016-Jun-17 23:33N 35°27' E 139°38'0 0.0
2016-Jun-17 22:33N 35°27' E 139°38'0 0.0
2016-Jun-17 06:33N 35°27' E 139°38'0 0.0
2016-Jun-17 05:33N 35°27' E 139°38'0 0.0
2016-Jun-17 04:33N 35°27' E 139°38'0 0.0
2016-Jun-17 03:33N 35°27' E 139°38'0 0.0
2016-Jun-17 02:33N 35°27' E 139°38'0 0.0
2016-Jun-17 01:33N 35°27' E 139°38'1 1.4
2016-Jun-17 00:33N 35°27' E 139°40'4 3.8
2016-Jun-16 23:34N 35°29' E 139°44'2 2.4
2016-Jun-16 22:34N 35°27' E 139°46'2 2.3
2016-Jun-16 21:33N 35°29' E 139°45'3 3.5
2016-Jun-16 20:33N 35°27' E 139°41'  
Track history (hours):
 
Tides and Currents Weather Stations Pressure Air Temp Water Temp Dewpoint Dewpoint Depression Visibility Wind Speed Wind Dir Waves Ship Positions

Akebono

Last reported at 2016-Jun-26 18:33 UTC. Time now 2016-Jun-26 19:13 UTC.
Position N 35°26' E 139°42'.

Length 33 m; draft 4.4 m.

Type: Tug. MMSI: 431000233.

Date/timePositionNaut miles runAvg speedWind from/ knotsBaromVisibWave heightAir tempDewpointWater temp
2016-Jun-26 18:33N 35°26' E 139°42'0 0.0
2016-Jun-26 17:33N 35°26' E 139°42'0 0.0
2016-Jun-26 16:33N 35°26' E 139°42'0 0.0
2016-Jun-26 15:33N 35°26' E 139°42'2 1.6
2016-Jun-26 14:33N 35°27' E 139°41'2 1.6
2016-Jun-26 13:33N 35°26' E 139°42'0 0.0
2016-Jun-26 12:33N 35°26' E 139°42'0 0.1
2016-Jun-26 11:33N 35°26' E 139°42'0 0.0
2016-Jun-26 10:33N 35°26' E 139°42'2 2.2
2016-Jun-26 09:34N 35°27' E 139°44'3 2.7
2016-Jun-26 08:34N 35°30' E 139°44'2 1.7
2016-Jun-26 07:34N 35°30' E 139°46'0 0.0
2016-Jun-26 06:34N 35°30' E 139°46'2 1.6
2016-Jun-26 05:34N 35°29' E 139°47'0 0.1
2016-Jun-26 04:33N 35°29' E 139°47'3 3.1
2016-Jun-26 03:33N 35°26' E 139°46'7 6.5
2016-Jun-26 02:33N 35°27' E 139°38'0 0.0
2016-Jun-26 01:33N 35°27' E 139°38'0 0.0
2016-Jun-26 00:33N 35°27' E 139°38'0 0.0
2016-Jun-25 23:33N 35°27' E 139°38'0 0.0
2016-Jun-25 22:33N 35°27' E 139°38'0 0.0
2016-Jun-25 21:33N 35°27' E 139°38'0 0.0
2016-Jun-25 20:33N 35°27' E 139°38'0 0.0
2016-Jun-25 07:11N 35°27' E 139°38'0 0.0
2016-Jun-25 06:34N 35°27' E 139°38'0 0.0
2016-Jun-25 05:33N 35°27' E 139°38'0 0.0
2016-Jun-25 04:33N 35°27' E 139°38'0 0.0
2016-Jun-25 03:34N 35°27' E 139°38'0 0.0
2016-Jun-25 02:34N 35°27' E 139°38'0 0.0
2016-Jun-25 01:34N 35°27' E 139°38'0 0.0
2016-Jun-25 00:34N 35°27' E 139°38'2 2.2
2016-Jun-24 23:34N 35°28' E 139°41'5 4.9
2016-Jun-24 22:34N 35°31' E 139°46'4 4.2
2016-Jun-24 21:34N 35°27' E 139°44'3 2.8
2016-Jun-24 20:34N 35°27' E 139°40'1 1.4
2016-Jun-24 19:34N 35°27' E 139°38'0 0.0
2016-Jun-24 08:33N 35°27' E 139°38'7 7.1
2016-Jun-24 07:33N 35°29' E 139°47'0 0.0
2016-Jun-24 04:33N 35°29' E 139°47'3 3.3
2016-Jun-24 03:33N 35°29' E 139°43'4 4.1
2016-Jun-24 02:33N 35°27' E 139°38'0 0.0
2016-Jun-24 01:33N 35°27' E 139°38'0 0.0
2016-Jun-24 00:33N 35°27' E 139°38'0 0.0
2016-Jun-23 23:33N 35°27' E 139°38'0 0.0
2016-Jun-23 22:33N 35°27' E 139°38'1 0.1
2016-Jun-23 05:33N 35°27' E 139°39'0 0.0
2016-Jun-23 04:34N 35°27' E 139°39'0 0.0
2016-Jun-23 03:34N 35°27' E 139°39'0 0.0
2016-Jun-23 02:33N 35°27' E 139°39'0 0.0
2016-Jun-23 01:33N 35°27' E 139°39'0 0.0
2016-Jun-23 00:33N 35°27' E 139°39'0 0.1
2016-Jun-22 23:34N 35°27' E 139°39'1 0.9
2016-Jun-22 22:33N 35°28' E 139°40'3 2.7
2016-Jun-22 21:33N 35°27' E 139°43'4 4.0
2016-Jun-22 20:34N 35°28' E 139°38'0 0.0
2016-Jun-22 10:29N 35°27' E 139°38'1 1.5
2016-Jun-22 09:34N 35°27' E 139°40'1 0.5
2016-Jun-22 08:34N 35°28' E 139°41'0 0.0
2016-Jun-22 07:34N 35°28' E 139°41'0 0.0
2016-Jun-22 06:34N 35°28' E 139°41'0 0.0
2016-Jun-22 05:34N 35°28' E 139°41'0 0.0
2016-Jun-22 04:34N 35°28' E 139°41'0 0.0
2016-Jun-22 03:33N 35°28' E 139°41'0 0.0
2016-Jun-22 02:34N 35°28' E 139°41'0 0.0
2016-Jun-22 01:34N 35°28' E 139°41'3 3.5
2016-Jun-22 00:33N 35°29' E 139°44'1 0.6
2016-Jun-21 23:34N 35°28' E 139°45'1 0.9
2016-Jun-21 22:33N 35°27' E 139°45'5 5.3
2016-Jun-21 21:33N 35°27' E 139°38'0 0.0
2016-Jun-21 07:12N 35°27' E 139°38'1 1.4
2016-Jun-21 06:33N 35°27' E 139°39'0 0.0
2016-Jun-21 04:33N 35°27' E 139°39'0 0.0
2016-Jun-21 03:33N 35°27' E 139°39'0 0.0
2016-Jun-21 02:33N 35°27' E 139°39'0 0.0
2016-Jun-21 01:33N 35°27' E 139°39'5 4.6
2016-Jun-21 00:33N 35°28' E 139°45'2 1.9
2016-Jun-20 23:33N 35°30' E 139°45'0 0.3
2016-Jun-20 22:33N 35°31' E 139°45'4 3.8
2016-Jun-20 21:33N 35°27' E 139°43'2 2.2
2016-Jun-20 20:33N 35°27' E 139°40'1 0.1
2016-Jun-20 06:34N 35°27' E 139°38'0 0.0
2016-Jun-20 05:34N 35°27' E 139°38'0 0.0
2016-Jun-20 04:34N 35°27' E 139°38'0 0.0
2016-Jun-20 03:34N 35°27' E 139°38'0 0.0
2016-Jun-20 02:34N 35°27' E 139°38'0 0.0
2016-Jun-20 01:33N 35°27' E 139°38'0 0.0
2016-Jun-20 00:34N 35°27' E 139°38'0 0.0
2016-Jun-19 23:34N 35°27' E 139°38'2 0.1
2016-Jun-18 23:33N 35°27' E 139°40'2 1.8
2016-Jun-18 22:34N 35°26' E 139°42'0 0.4
2016-Jun-18 21:33N 35°26' E 139°42'2 1.8
2016-Jun-18 20:33N 35°28' E 139°41'1 0.7
2016-Jun-18 19:33N 35°28' E 139°42'0 0.0
2016-Jun-18 18:33N 35°28' E 139°42'0 0.0
2016-Jun-18 17:34N 35°28' E 139°42'0 0.0
2016-Jun-18 16:33N 35°28' E 139°42'0 0.0
2016-Jun-18 15:33N 35°28' E 139°42'2 1.5
2016-Jun-18 14:33N 35°26' E 139°41'1 1.5
2016-Jun-18 13:33N 35°27' E 139°39'0 0.0
2016-Jun-18 12:33N 35°27' E 139°39'0 0.0
2016-Jun-18 11:33N 35°27' E 139°39'5 4.8
2016-Jun-18 10:34N 35°27' E 139°45'4 3.9
2016-Jun-18 09:33N 35°30' E 139°46'2 2.4
2016-Jun-18 08:33N 35°29' E 139°43'2 1.7
2016-Jun-18 07:33N 35°28' E 139°42'2 2.3
2016-Jun-18 06:33N 35°27' E 139°40'1 0.9
2016-Jun-18 05:33N 35°27' E 139°38'0 0.0
2016-Jun-18 04:33N 35°27' E 139°38'0 0.0
2016-Jun-18 03:33N 35°27' E 139°38'0 0.0
2016-Jun-18 02:33N 35°27' E 139°38'0 0.0
2016-Jun-18 01:33N 35°27' E 139°38'0 0.0
2016-Jun-18 00:33N 35°27' E 139°38'0 0.0
2016-Jun-17 23:33N 35°27' E 139°38'0 0.0
2016-Jun-17 22:33N 35°27' E 139°38'0 0.0
2016-Jun-17 06:33N 35°27' E 139°38'0 0.0
2016-Jun-17 05:33N 35°27' E 139°38'0 0.0
2016-Jun-17 04:33N 35°27' E 139°38'0 0.0
2016-Jun-17 03:33N 35°27' E 139°38'0 0.0
2016-Jun-17 02:33N 35°27' E 139°38'0 0.0
2016-Jun-17 01:33N 35°27' E 139°38'1 1.4
2016-Jun-17 00:33N 35°27' E 139°40'4 3.8
2016-Jun-16 23:34N 35°29' E 139°44'2 2.4
2016-Jun-16 22:34N 35°27' E 139°46'2 2.3
2016-Jun-16 21:33N 35°29' E 139°45'3 3.5
2016-Jun-16 20:33N 35°27' E 139°41'  

Dump ship's entire track history